Time;durP1;ratioP1;P1;durP2;ratioP2;P2;SDS_P1;SDS_P2;PMS_P1;PMS_P2;Temp;Humidity;BMP_temperature;BMP_pressure;BME280_temperature;BME280_humidity;BME280_pressure;Samples;Min_cycle;Max_cycle;Signal;HPM_P1;HPM_P2
2022/06/17 00:01:38;;;;;;;35.38;15.07;;;;;;;21.61;65.48;100729.59;4877513;29;20564;-75
2022/06/17 00:04:03;;;;;;;38.13;14.57;;;;;;;21.32;64.72;100684.47;4875482;29;20045;-75
2022/06/17 00:06:35;;;;;;;37.83;15.45;;;;;;;21.76;64.14;100746.78;4871977;29;20059;-75
2022/06/17 00:09:01;;;;;;;60.03;19.55;;;;;;;21.18;62.24;100661.00;4876478;29;20060;-74
2022/06/17 00:11:37;;;;;;;54.42;17.73;;;;;;;21.37;62.39;100688.69;4876526;29;20482;-74
2022/06/17 00:14:12;;;;;;;51.95;17.38;;;;;;;21.40;61.93;100688.59;4877723;29;20088;-74
2022/06/17 00:16:38;;;;;;;35.20;14.55;;;;;;;21.86;61.10;100752.63;4881198;29;20049;-74
2022/06/17 00:19:03;;;;;;;25.17;12.25;;;;;;;21.35;61.14;100660.31;4872096;29;20061;-75
2022/06/17 00:21:40;;;;;;;33.13;14.45;;;;;;;21.28;61.98;100670.38;4841704;29;20481;-75
2022/06/17 00:24:13;;;;;;;37.25;13.48;;;;;;;21.80;60.79;100732.38;4855892;29;20049;-75
2022/06/17 00:26:38;;;;;;;26.30;11.23;;;;;;;21.23;60.79;100664.34;4858586;29;20176;-74
2022/06/17 00:29:04;;;;;;;37.75;14.63;;;;;;;21.75;61.58;100738.81;4857907;29;20132;-74
2022/06/17 00:31:29;;;;;;;21.15;9.63;;;;;;;21.28;60.81;100678.38;4842413;29;20042;-75
2022/06/17 00:33:55;;;;;;;46.97;17.92;;;;;;;21.49;61.18;100709.59;4858793;29;20041;-74
2022/06/17 00:36:20;;;;;;;28.90;11.32;;;;;;;21.14;61.17;100670.06;4843000;29;20505;-75
2022/06/17 00:38:46;;;;;;;43.45;15.40;;;;;;;21.34;61.99;100703.97;4840059;29;20057;-74
2022/06/17 00:41:22;;;;;;;33.13;11.07;;;;;;;21.12;61.20;100658.56;4855838;29;20061;-75
2022/06/17 00:43:47;;;;;;;24.08;10.48;;;;;;;21.49;62.13;100730.97;4859314;29;20064;-74
2022/06/17 00:47:04;;;;;;;33.10;11.75;;;;;;;21.03;61.64;100678.50;4858276;29;20033;-75
2022/06/17 00:49:47;;;;;;;23.45;10.45;;;;;;;21.32;60.99;100713.84;4817168;29;20053;-74
2022/06/17 00:52:27;;;;;;;30.33;10.75;;;;;;;20.96;60.72;100659.19;4858507;29;20521;-75
2022/06/17 00:54:58;;;;;;;38.50;15.23;;;;;;;21.21;61.15;100703.56;4856818;29;20054;-74
2022/06/17 00:57:39;;;;;;;36.10;13.63;;;;;;;21.38;60.68;100714.47;4855333;29;20095;-75
2022/06/17 01:00:08;;;;;;;33.40;13.23;;;;;;;20.98;60.14;100673.34;4839846;29;20056;-75
2022/06/17 01:02:37;;;;;;;26.35;10.82;;;;;;;21.38;60.14;100716.28;4855247;29;20474;-75
2022/06/17 01:05:04;;;;;;;25.13;10.80;;;;;;;21.32;59.63;100708.50;4855867;29;20053;-76
2022/06/17 01:07:36;;;;;;;36.72;12.38;;;;;;;21.23;60.55;100709.72;4842055;29;20375;-76
2022/06/17 01:10:13;;;;;;;32.58;14.63;;;;;;;20.82;60.35;100648.19;4854581;29;20080;-76
2022/06/17 01:12:58;;;;;;;44.17;15.90;;;;;;;21.00;59.94;100662.59;4855958;29;20128;-75
2022/06/17 01:15:27;;;;;;;38.10;14.07;;;;;;;20.85;61.06;100656.91;4858270;29;20541;-75
2022/06/17 01:18:00;;;;;;;28.77;11.45;;;;;;;21.32;59.70;100712.03;4855458;29;20091;-74
2022/06/17 01:20:33;;;;;;;34.72;12.48;;;;;;;21.21;61.37;100711.56;4856690;29;20077;-76
2022/06/17 01:23:03;;;;;;;32.70;12.40;;;;;;;21.14;60.48;100723.41;4854345;29;20077;-75
2022/06/17 01:25:33;;;;;;;28.20;10.30;;;;;;;20.85;60.49;100694.25;4854515;29;20033;-74
2022/06/17 01:28:07;;;;;;;38.30;14.98;;;;;;;20.97;60.15;100682.25;4857330;29;20041;-75
2022/06/17 01:30:45;;;;;;;54.67;18.55;;;;;;;21.02;59.04;100698.94;4857504;29;20067;-76
2022/06/17 01:33:31;;;;;;;52.03;17.60;;;;;;;20.94;62.40;100690.38;4855489;29;20125;-75
2022/06/17 01:36:25;;;;;;;28.77;9.98;;;;;;;20.76;60.60;100659.09;4856358;29;20450;-74
2022/06/17 01:38:55;;;;;;;13.88;7.25;;;;;;;20.74;61.77;100659.13;4852670;29;20059;-74
2022/06/17 01:41:24;;;;;;;22.10;11.48;;;;;;;21.20;60.80;100726.72;4856560;29;20057;-75
2022/06/17 01:43:56;;;;;;;33.15;13.48;;;;;;;20.79;61.60;100669.63;4860072;29;20053;-75
2022/06/17 01:46:27;;;;;;;36.10;12.38;;;;;;;21.07;61.67;100729.03;4846028;29;20033;-74
2022/06/17 01:48:58;;;;;;;47.63;13.32;;;;;;;20.62;63.80;100668.47;4836698;29;20037;-74
2022/06/17 01:51:26;;;;;;;32.53;11.52;;;;;;;20.53;60.27;100671.44;4840903;29;20184;-74
2022/06/17 01:53:57;;;;;;;47.33;17.35;;;;;;;20.74;60.45;100693.81;4858980;29;20069;-74
2022/06/17 01:56:28;;;;;;;43.85;16.63;;;;;;;21.24;59.33;100735.50;4858293;29;20050;-75
2022/06/17 01:59:31;;;;;;;34.90;12.75;;;;;;;20.92;60.79;100697.56;4844289;29;20052;-75
2022/06/17 02:02:00;;;;;;;56.83;18.40;;;;;;;21.16;62.50;100726.91;4854620;29;20083;-75
2022/06/17 02:04:30;;;;;;;38.60;14.70;;;;;;;20.67;61.28;100657.63;4859242;29;20073;-74
2022/06/17 02:07:11;;;;;;;53.10;19.52;;;;;;;20.63;60.54;100658.69;4860102;29;20042;-75
2022/06/17 02:09:37;;;;;;;47.15;16.08;;;;;;;20.84;60.81;100689.00;4841898;29;20060;-74
2022/06/17 02:12:05;;;;;;;57.67;18.38;;;;;;;21.05;61.61;100709.53;4849663;29;20098;-75
2022/06/17 02:14:32;;;;;;;64.95;21.52;;;;;;;20.83;62.64;100706.78;4863385;29;20393;-75
2022/06/17 02:16:59;;;;;;;66.28;20.73;;;;;;;20.63;62.25;100678.22;4862926;29;20129;-74
2022/06/17 02:19:27;;;;;;;38.92;14.80;;;;;;;20.67;61.46;100700.28;4855562;29;20057;-74
2022/06/17 02:22:15;;;;;;;46.90;18.60;;;;;;;20.47;63.80;100647.69;4859158;29;20806;-75
2022/06/17 02:24:42;;;;;;;31.52;14.13;;;;;;;20.74;61.34;100706.28;4859153;29;20241;-76
2022/06/17 02:27:11;;;;;;;16.88;8.93;;;;;;;20.74;63.45;100717.81;4859148;29;20049;-73
2022/06/17 02:29:41;;;;;;;22.75;11.90;;;;;;;20.50;61.10;100668.91;4841514;29;20077;-74
2022/06/17 02:32:08;;;;;;;28.83;12.80;;;;;;;20.55;59.21;100680.25;4858601;29;20097;-74
2022/06/17 02:34:36;;;;;;;44.00;19.70;;;;;;;20.74;60.59;100691.13;4859562;29;20044;-74
2022/06/17 02:37:10;;;;;;;34.53;14.48;;;;;;;20.47;61.13;100654.81;4857466;29;20036;-75
2022/06/17 02:39:42;;;;;;;47.85;21.33;;;;;;;20.96;61.43;100733.88;4861501;29;20106;-74
2022/06/17 02:42:21;;;;;;;48.42;21.38;;;;;;;20.90;61.40;100722.56;4841758;29;20553;-75
2022/06/17 02:44:53;;;;;;;31.15;15.52;;;;;;;20.40;64.50;100632.84;4842343;29;20056;-75
2022/06/17 02:47:19;;;;;;;23.08;11.95;;;;;;;20.89;63.27;100728.84;4860581;29;20074;-75
2022/06/17 02:49:45;;;;;;;25.50;11.30;;;;;;;20.42;62.69;100649.66;4863560;29;20144;-75
2022/06/17 02:52:18;;;;;;;19.88;9.30;;;;;;;20.63;63.26;100698.69;4866235;29;20037;-75
2022/06/17 02:54:47;;;;;;;;;;;;;;;20.77;60.84;100709.72;4861084;29;20060;-75
2022/06/17 02:57:31;;;;;;;21.42;9.93;;;;;;;20.75;62.06;100724.91;4841908;29;19927;-75
2022/06/17 03:00:02;;;;;;;31.95;15.27;;;;;;;20.26;62.65;100649.34;4863242;29;20109;-75
2022/06/17 03:02:35;;;;;;;29.00;13.30;;;;;;;20.84;63.08;100719.22;4842348;29;20053;-74
2022/06/17 03:05:01;;;;;;;33.17;15.63;;;;;;;20.91;64.03;100719.84;4859008;29;20054;-74
2022/06/17 03:07:31;;;;;;;70.90;27.15;;;;;;;20.35;61.37;100646.34;4841805;29;20045;-74
2022/06/17 03:09:56;;;;;;;31.30;15.98;;;;;;;20.41;62.19;100650.56;4862460;29;20045;-74
2022/06/17 03:12:27;;;;;;;33.38;15.80;;;;;;;20.32;63.82;100629.59;4861495;29;20060;-75
2022/06/17 03:15:04;;;;;;;26.98;14.10;;;;;;;20.40;65.40;100646.19;4846031;29;20065;-74
2022/06/17 03:17:34;;;;;;;30.20;14.85;;;;;;;20.49;64.11;100711.63;4861067;29;20840;-74
2022/06/17 03:20:04;;;;;;;23.77;11.07;;;;;;;20.37;63.63;100643.59;4862919;29;20060;-75
2022/06/17 03:22:31;;;;;;;42.13;20.65;;;;;;;20.82;62.79;100725.53;4842138;29;20029;-75
2022/06/17 03:25:14;;;;;;;53.35;23.63;;;;;;;20.40;62.26;100639.03;4863741;29;20045;-75
2022/06/17 03:27:44;;;;;;;;;;;;;;;20.55;62.39;100666.06;4845054;29;20060;-75
2022/06/17 03:30:13;;;;;;;39.88;22.17;;;;;;;20.86;64.98;100721.81;4848059;29;20386;-75
2022/06/17 03:32:45;;;;;;;54.83;26.95;;;;;;;20.48;65.73;100660.06;4859470;29;20144;-75
2022/06/17 03:35:19;;;;;;;86.63;39.67;;;;;;;20.48;66.03;100693.88;4864582;29;20127;-75
2022/06/17 03:38:29;;;;;;;35.40;18.17;;;;;;;20.71;65.51;100703.72;4856457;29;20057;-75
2022/06/17 03:41:03;;;;;;;43.50;22.02;;;;;;;20.41;65.33;100645.25;4859662;29;20397;-76
2022/06/17 03:43:39;;;;;;;50.92;25.25;;;;;;;20.77;63.38;100716.84;4844615;29;20136;-75
2022/06/17 03:46:07;;;;;;;58.65;30.88;;;;;;;20.79;65.20;100722.97;4862972;29;20037;-75
2022/06/17 03:48:41;;;;;;;63.65;29.95;;;;;;;20.84;65.46;100721.03;4860759;29;20092;-75
2022/06/17 03:51:14;;;;;;;71.38;25.73;;;;;;;20.25;67.50;100668.91;4858583;29;20136;-75
2022/06/17 03:53:40;;;;;;;71.20;28.45;;;;;;;20.68;66.36;100733.19;4860450;29;20144;-75
2022/06/17 03:56:13;;;;;;;15.30;8.20;;;;;;;20.62;66.98;100721.78;4861428;29;20045;-76
2022/06/17 03:58:40;;;;;;;21.13;11.68;;;;;;;20.22;66.09;100650.38;4830432;29;20049;-75
2022/06/17 04:01:28;;;;;;;27.55;12.80;;;;;;;20.71;67.15;100725.94;4862918;29;20069;-74
2022/06/17 04:03:58;;;;;;;26.85;13.30;;;;;;;20.56;67.05;100724.72;4859286;29;20768;-75
2022/06/17 04:06:28;;;;;;;28.60;15.73;;;;;;;20.25;68.55;100655.59;4858132;29;20563;-74
2022/06/17 04:09:20;;;;;;;42.45;20.23;;;;;;;20.71;69.98;100722.41;4861503;29;20074;-75
2022/06/17 04:11:50;;;;;;;21.77;10.02;;;;;;;20.28;65.51;100654.63;4839585;29;20068;-74
2022/06/17 04:14:26;;;;;;;27.13;12.93;;;;;;;20.59;66.15;100689.06;4844625;29;20046;-75
2022/06/17 04:17:10;;;;;;;32.28;13.98;;;;;;;20.40;65.71;100654.19;4860826;29;20502;-75
2022/06/17 04:19:35;;;;;;;29.20;14.30;;;;;;;20.79;66.17;100730.97;4856675;29;20057;-74
2022/06/17 04:22:25;;;;;;;29.05;15.35;;;;;;;20.42;68.28;100660.31;4850714;29;20033;-75
2022/06/17 04:24:57;;;;;;;17.25;9.98;;;;;;;20.49;69.12;100687.63;4858592;29;20060;-75
2022/06/17 04:27:24;;;;;;;29.60;11.00;;;;;;;20.36;69.97;100668.53;4856226;29;20053;-75
2022/06/17 04:29:54;;;;;;;14.23;8.80;;;;;;;20.39;69.75;100657.75;4854407;29;20096;-75
2022/06/17 04:32:32;;;;;;;22.77;11.90;;;;;;;20.52;70.60;100660.84;4843250;29;20139;-75
2022/06/17 04:34:58;;;;;;;38.72;14.35;;;;;;;20.99;69.08;100733.75;4856133;29;20592;-75
2022/06/17 04:37:24;;;;;;;16.88;10.02;;;;;;;20.72;66.79;100673.44;4857989;29;20060;-75
2022/06/17 04:39:54;;;;;;;15.35;9.18;;;;;;;21.09;66.29;100712.94;4854995;29;20205;-75
2022/06/17 04:42:43;;;;;;;26.45;15.40;;;;;;;21.24;64.42;100739.03;4861698;29;21014;-75
2022/06/17 04:45:38;;;;;;;24.73;14.32;;;;;;;21.04;63.65;100685.56;4855597;29;20123;-73
2022/06/17 04:48:04;;;;;;;30.90;16.50;;;;;;;21.21;61.18;100679.53;4843908;29;20148;-75
2022/06/17 04:50:32;;;;;;;27.15;13.15;;;;;;;21.25;61.65;100682.03;4858294;29;20203;-75
2022/06/17 04:52:58;;;;;;;44.85;20.95;;;;;;;21.10;65.19;100655.97;4838965;29;20061;-75
2022/06/17 04:55:36;;;;;;;37.97;18.70;;;;;;;21.05;62.32;100652.63;4848681;29;20037;-75
2022/06/17 04:58:02;;;;;;;29.42;15.98;;;;;;;21.23;60.12;100651.88;4856866;29;20332;-75
2022/06/17 05:00:28;;;;;;;41.83;20.48;;;;;;;21.38;62.64;100661.06;4857791;29;20144;-75
2022/06/17 05:02:55;;;;;;;35.72;18.60;;;;;;;21.75;61.17;100721.03;4857069;29;20085;-76
2022/06/17 05:05:27;;;;;;;52.38;22.95;;;;;;;21.18;59.19;100651.19;4855967;29;20076;-75
2022/06/17 05:07:55;;;;;;;31.83;17.80;;;;;;;21.75;60.31;100699.66;4841045;29;20566;-75
2022/06/17 05:10:33;;;;;;;53.67;25.88;;;;;;;21.55;59.36;100641.72;4854448;29;20041;-75
2022/06/17 05:13:45;;;;;;;57.08;24.27;;;;;;;21.68;57.83;100648.28;4855623;29;20092;-75
2022/06/17 05:16:14;;;;;;;29.70;14.50;;;;;;;22.34;56.92;100717.63;4841822;29;20089;-75
2022/06/17 05:18:39;;;;;;;48.45;25.65;;;;;;;22.16;55.47;100686.31;4845112;29;20045;-75
2022/06/17 05:21:07;;;;;;;55.10;25.17;;;;;;;22.07;56.36;100697.38;4855832;29;20053;-75
2022/06/17 05:23:34;;;;;;;40.88;21.20;;;;;;;22.20;56.63;100716.47;4858510;29;20052;-75
2022/06/17 05:25:59;;;;;;;41.35;19.48;;;;;;;21.48;55.53;100664.25;4853040;29;20053;-75
2022/06/17 05:28:26;;;;;;;39.13;21.80;;;;;;;21.69;56.42;100668.69;4853192;29;20117;-75
2022/06/17 05:30:55;;;;;;;44.67;22.67;;;;;;;21.91;56.68;100706.09;4856603;29;20108;-75
2022/06/17 05:33:21;;;;;;;50.17;23.83;;;;;;;21.71;56.04;100671.31;4852987;29;20053;-76
2022/06/17 05:35:48;;;;;;;47.92;23.25;;;;;;;21.54;55.59;100649.78;4858146;29;20125;-76
2022/06/17 05:38:14;;;;;;;40.90;17.98;;;;;;;21.65;56.26;100659.06;4856615;29;20512;-75
2022/06/17 05:40:41;;;;;;;44.88;20.40;;;;;;;21.98;58.47;100700.47;4858527;29;20057;-78
2022/06/17 05:43:09;;;;;;;57.88;29.40;;;;;;;22.11;58.36;100696.34;4853105;29;20041;-75
2022/06/17 05:45:34;;;;;;;31.80;17.40;;;;;;;22.70;55.64;100708.88;4851396;29;20064;-75
2022/06/17 05:48:00;;;;;;;65.20;30.08;;;;;;;22.64;56.42;100705.59;4848612;29;20076;-75
2022/06/17 05:50:29;;;;;;;70.05;25.25;;;;;;;22.79;53.54;100709.41;4853213;29;20049;-79
2022/06/17 05:53:00;;;;;;;96.22;39.17;;;;;;;22.82;54.04;100656.59;4850911;29;20086;-75
2022/06/17 05:55:29;;;;;;;52.83;20.55;;;;;;;23.02;54.46;100646.81;4855985;29;20496;-75
2022/06/17 05:57:54;;;;;;;82.60;36.20;;;;;;;23.40;50.67;100695.81;4856417;29;20037;-76
2022/06/17 06:00:23;;;;;;;48.58;24.50;;;;;;;23.09;51.85;100648.25;4854721;29;20518;-75
2022/06/17 06:02:48;;;;;;;83.05;34.42;;;;;;;23.03;53.26;100611.91;4854262;29;20053;-73
2022/06/17 06:05:18;;;;;;;83.18;32.67;;;;;;;23.83;53.38;100691.00;4832149;29;20068;-74
2022/06/17 06:07:45;;;;;;;157.15;53.65;;;;;;;23.88;53.90;100702.38;4859797;29;20061;-74
2022/06/17 06:10:13;;;;;;;62.22;28.13;;;;;;;23.23;53.55;100655.59;4843795;29;20067;-74
2022/06/17 06:12:53;;;;;;;40.20;23.52;;;;;;;22.74;53.97;100635.56;4860567;29;20049;-73
2022/06/17 06:15:20;;;;;;;26.42;14.70;;;;;;;23.11;54.52;100699.91;4862912;29;20069;-74
2022/06/17 06:17:46;;;;;;;42.55;17.75;;;;;;;23.08;52.83;100658.06;4859951;29;20056;-74
2022/06/17 06:20:14;;;;;;;32.30;16.38;;;;;;;22.98;52.67;100627.31;4859780;29;20066;-75
2022/06/17 06:22:42;;;;;;;25.05;13.48;;;;;;;23.38;54.54;100641.44;4864346;29;20056;-75
2022/06/17 06:25:12;;;;;;;28.20;11.18;;;;;;;23.29;54.59;100639.22;4863468;29;20995;-74
2022/06/17 06:27:38;;;;;;;31.48;12.50;;;;;;;23.15;54.02;100674.69;4864029;29;20550;-74
2022/06/17 06:30:05;;;;;;;24.63;12.63;;;;;;;23.16;53.10;100689.84;4863893;29;20076;-74
2022/06/17 06:32:30;;;;;;;18.08;9.77;;;;;;;23.43;53.09;100694.78;4845296;29;20128;-74
2022/06/17 06:34:56;;;;;;;23.30;9.48;;;;;;;22.96;52.79;100643.41;4863724;29;20055;-74
2022/06/17 06:37:22;;;;;;;14.27;8.65;;;;;;;23.44;55.40;100688.50;4829141;29;20486;-74
2022/06/17 06:39:47;;;;;;;18.33;5.40;;;;;;;23.30;55.38;100691.84;4867131;29;20096;-74
2022/06/17 06:42:13;;;;;;;4.78;3.28;;;;;;;23.48;54.11;100679.34;4862898;29;20527;-74
2022/06/17 06:44:38;;;;;;;11.40;5.15;;;;;;;23.47;54.23;100677.63;4864923;29;20052;-73
2022/06/17 06:47:04;;;;;;;10.70;4.25;;;;;;;23.17;52.80;100683.53;4858434;29;20049;-74
2022/06/17 06:52:02;;;;;;;62.05;25.50;;;;;;;23.29;51.72;100682.06;4783056;27;8312411;-75
2022/06/17 06:54:29;;;;;;;49.28;22.02;;;;;;;23.31;51.23;100651.59;5058506;28;20050;-75
2022/06/17 06:56:59;;;;;;;350.67;65.30;;;;;;;23.15;54.09;100618.47;5071818;28;20210;-75
2022/06/17 06:59:25;;;;;;;513.22;99.28;;;;;;;23.68;53.75;100684.59;5051163;28;20060;-74
2022/06/17 07:01:51;;;;;;;136.82;28.60;;;;;;;23.75;52.06;100680.69;5053051;28;20464;-77
2022/06/17 07:04:16;;;;;;;68.88;29.92;;;;;;;24.04;51.89;100683.69;5053164;28;20538;-75
2022/06/17 07:06:43;;;;;;;84.18;27.75;;;;;;;24.20;51.80;100684.63;5068933;28;20029;-75
2022/06/17 07:09:13;;;;;;;81.78;31.45;;;;;;;23.94;51.85;100650.25;5051114;28;20088;-75
2022/06/17 07:11:39;;;;;;;64.07;19.77;;;;;;;23.86;54.52;100621.19;5072856;28;20060;-74
2022/06/17 07:14:06;;;;;;;64.93;33.75;;;;;;;23.84;54.02;100612.34;5033453;28;20113;-74
2022/06/17 07:16:31;;;;;;;50.55;24.00;;;;;;;23.96;52.89;100680.53;5071279;28;20384;-74
2022/06/17 07:18:57;;;;;;;54.53;28.40;;;;;;;23.28;53.93;100627.66;5073450;28;20048;-75
2022/06/17 07:21:22;;;;;;;58.95;27.67;;;;;;;23.60;54.25;100633.22;5065978;28;20082;-74
2022/06/17 07:23:48;;;;;;;64.28;29.52;;;;;;;23.22;52.90;100625.25;5048839;28;20041;-74
2022/06/17 07:26:18;;;;;;;108.13;47.22;;;;;;;23.34;53.10;100611.28;5069634;28;20139;-75
2022/06/17 07:28:45;;;;;;;112.22;46.53;;;;;;;24.04;55.54;100678.31;5039403;28;20057;-74
2022/06/17 07:31:11;;;;;;;126.38;55.30;;;;;;;24.14;53.88;100623.28;5064815;28;20032;-73
2022/06/17 07:33:37;;;;;;;83.82;37.40;;;;;;;24.38;53.08;100634.50;5049897;28;20097;-74
2022/06/17 07:36:06;;;;;;;70.53;30.58;;;;;;;24.59;52.07;100688.00;5069638;28;20052;-73
2022/06/17 07:41:24;;;;;;;252.63;92.03;;;;;;;24.29;54.55;100635.00;5066420;28;20126;-77
2022/06/17 07:43:51;;;;;;;220.85;86.05;;;;;;;24.05;54.63;100644.34;5059567;28;20056;-77
2022/06/17 07:46:18;;;;;;;195.13;79.78;;;;;;;24.40;54.08;100685.41;5068581;28;20176;-76
2022/06/17 07:48:45;;;;;;;226.52;92.65;;;;;;;24.05;53.97;100623.78;5062903;28;20028;-78
2022/06/17 07:51:11;;;;;;;209.88;84.68;;;;;;;24.13;55.04;100656.38;5045459;28;20049;-86
2022/06/17 07:53:41;;;;;;;303.50;127.35;;;;;;;24.12;57.83;100611.78;5033363;28;20080;-86
2022/06/17 07:56:09;;;;;;;382.00;162.20;;;;;;;24.46;54.68;100628.72;5032260;28;20048;-92
2022/06/17 07:58:36;;;;;;;189.07;80.15;;;;;;;25.08;53.25;100665.63;5031111;28;20399;-81
2022/06/17 08:01:02;;;;;;;188.75;86.40;;;;;;;24.89;52.93;100586.13;5026421;28;20448;-81
2022/06/17 08:03:30;;;;;;;229.65;100.47;;;;;;;24.67;58.71;100615.97;5032111;28;20037;-86
2022/06/17 08:05:58;;;;;;;10.90;5.50;;;;;;;24.93;54.17;100672.72;5034665;28;20112;-83
2022/06/17 08:08:25;;;;;;;8.63;4.97;;;;;;;24.64;56.18;100653.72;5031070;28;20040;-81
2022/06/17 08:10:56;;;;;;;8.00;4.78;;;;;;;24.37;57.24;100613.13;5030185;28;20139;-81
2022/06/17 08:13:23;;;;;;;10.13;5.20;;;;;;;25.06;55.49;100661.19;5029761;28;20692;-81
2022/06/17 08:15:57;;;;;;;11.88;5.22;;;;;;;25.19;57.48;100637.25;5016465;28;20047;-82
2022/06/17 08:18:23;;;;;;;18.38;5.72;;;;;;;25.35;51.87;100634.50;5032785;28;20052;-82
2022/06/17 08:20:50;;;;;;;10.20;5.38;;;;;;;25.38;56.39;100657.63;5031041;28;20063;-81
2022/06/17 08:23:17;;;;;;;9.77;5.13;;;;;;;25.40;54.59;100602.00;5013815;28;20048;-80
2022/06/17 08:25:51;;;;;;;10.43;4.93;;;;;;;25.93;54.05;100661.63;5032235;28;20053;-82
2022/06/17 08:28:20;;;;;;;9.93;5.55;;;;;;;25.74;53.52;100659.16;5034886;28;20123;-80
2022/06/17 08:30:51;;;;;;;6.95;4.93;;;;;;;25.99;49.01;100632.56;5035445;28;20049;-80
2022/06/17 08:33:25;;;;;;;9.95;6.30;;;;;;;26.12;47.99;100586.91;5010532;28;20557;-80
2022/06/17 08:35:51;;;;;;;11.05;6.45;;;;;;;26.46;48.51;100609.91;5012297;28;20076;-80
2022/06/17 08:38:27;;;;;;;17.60;7.28;;;;;;;25.81;55.06;100639.88;5033899;28;20132;-79
2022/06/17 08:41:29;;;;;;;8.10;5.10;;;;;;;25.88;53.99;100646.63;5016269;28;20044;-81
2022/06/17 08:44:36;;;;;;;8.40;4.80;;;;;;;25.81;55.17;100649.75;5012633;28;20057;-80
2022/06/17 08:47:35;;;;;;;8.40;5.60;;;;;;;25.73;51.60;100642.16;4986973;28;20054;-79
2022/06/17 08:50:33;;;;;;;15.38;7.47;;;;;;;25.42;54.74;100587.50;5030282;28;20061;-80
2022/06/17 08:53:17;;;;;;;24.65;5.32;;;;;;;25.59;52.18;100597.28;5014973;28;20471;-81
2022/06/17 08:56:03;;;;;;;8.27;5.90;;;;;;;25.89;47.95;100580.28;5029110;28;20049;-78
2022/06/17 08:58:54;;;;;;;20.58;9.02;;;;;;;26.37;51.25;100629.31;5016158;28;20188;-78
2022/06/17 09:01:36;;;;;;;20.45;7.00;;;;;;;27.32;47.27;100650.19;5024833;28;20091;-78
2022/06/17 09:04:14;;;;;;;20.70;7.38;;;;;;;27.01;50.26;100583.94;5033684;28;20063;-78
2022/06/17 09:06:52;;;;;;;14.00;7.85;;;;;;;27.20;44.84;100569.28;5012477;28;20788;-79
2022/06/17 09:09:45;;;;;;;10.52;5.07;;;;;;;28.04;45.25;100582.38;5014336;28;20521;-85
2022/06/17 09:12:27;;;;;;;17.42;8.32;;;;;;;28.60;42.28;100639.59;5033068;28;20128;-85
2022/06/17 09:14:58;;;;;;;10.40;5.65;;;;;;;28.30;46.02;100631.81;5032781;28;20112;-84
2022/06/17 09:17:42;;;;;;;13.73;6.90;;;;;;;27.54;42.53;100566.03;5032182;28;20048;-85
2022/06/17 09:20:17;;;;;;;9.57;5.50;;;;;;;27.86;42.80;100633.13;5021324;28;20073;-86
2022/06/17 09:23:05;;;;;;;8.25;5.43;;;;;;;27.64;41.99;100622.88;5034987;28;21021;-84
2022/06/17 09:25:58;;;;;;;24.10;8.20;;;;;;;27.19;47.33;100551.38;5036307;28;20087;-84
2022/06/17 09:28:45;;;;;;;13.52;6.38;;;;;;;27.74;43.49;100633.91;5028355;28;20045;-85
2022/06/17 09:31:26;;;;;;;10.20;5.07;;;;;;;27.24;42.63;100630.09;5038846;28;20772;-86
2022/06/17 09:34:01;;;;;;;10.40;4.65;;;;;;;27.28;42.38;100551.66;5017327;28;20033;-84
2022/06/17 09:36:39;;;;;;;13.50;7.63;;;;;;;27.95;42.68;100539.88;5032471;28;20128;-86
2022/06/17 09:39:22;;;;;;;20.15;9.70;;;;;;;27.80;42.96;100622.69;5039518;28;20075;-85
2022/06/17 09:41:53;;;;;;;;;;;;;;;27.12;46.58;100567.94;5036822;28;20038;-86
2022/06/17 09:44:34;;;;;;;11.40;6.90;;;;;;;27.90;42.76;100623.81;5037516;28;19931;-86
2022/06/17 09:47:18;;;;;;;18.05;8.40;;;;;;;27.95;45.33;100546.13;5034175;28;20144;-86
2022/06/17 09:49:59;;;;;;;21.65;8.57;;;;;;;28.37;47.39;100551.25;5019914;28;20087;-85
2022/06/17 09:52:36;;;;;;;14.85;7.68;;;;;;;28.20;41.58;100563.28;5037942;28;20064;-84
2022/06/17 09:55:11;;;;;;;15.32;6.90;;;;;;;29.22;43.87;100598.16;5036561;28;20025;-84
2022/06/17 09:57:50;;;;;;;12.82;7.32;;;;;;;28.44;40.18;100551.69;5036971;28;20053;-86
2022/06/17 10:00:21;;;;;;;20.02;8.93;;;;;;;29.21;41.16;100545.06;5037670;28;20049;-87
2022/06/17 10:03:07;;;;;;;19.30;8.30;;;;;;;28.94;39.20;100593.03;5037495;28;20139;-86
2022/06/17 10:05:59;;;;;;;19.90;11.48;;;;;;;28.80;40.58;100581.44;5036061;28;20072;-84
2022/06/17 10:09:01;;;;;;;32.22;15.68;;;;;;;29.34;40.31;100590.97;5039202;28;20489;-88
2022/06/17 10:11:38;;;;;;;10.93;6.27;;;;;;;29.30;37.77;100577.78;5007143;28;20422;-85
2022/06/17 10:14:16;;;;;;;42.35;19.55;;;;;;;29.39;38.22;100520.31;5031810;28;20077;-89
2022/06/17 10:19:56;;;;;;;61.28;29.00;;;;;;;29.81;37.54;100575.66;5037539;28;20534;-87
2022/06/17 10:22:59;;;;;;;66.03;30.52;;;;;;;29.70;38.44;100563.94;5018114;28;20473;-86
2022/06/17 10:25:55;;;;;;;87.18;35.03;;;;;;;27.79;46.63;100513.97;5035298;28;20041;-83
2022/06/17 10:28:45;;;;;;;85.72;37.00;;;;;;;28.95;40.13;100519.13;5034444;28;20935;-83
2022/06/17 10:31:22;;;;;;;27.52;13.18;;;;;;;29.21;41.72;100553.16;5037431;28;20052;-84
2022/06/17 10:33:50;;;;;;;117.80;47.13;;;;;;;28.37;45.06;100557.53;5019988;28;20103;-84
2022/06/17 10:36:17;;;;;;;114.32;47.05;;;;;;;29.21;41.74;100560.44;5016794;28;20072;-85
2022/06/17 10:38:46;;;;;;;114.15;42.60;;;;;;;27.74;48.13;100555.69;5013157;28;20488;-88
2022/06/17 10:41:13;;;;;;;91.10;32.20;;;;;;;28.47;45.55;100573.09;5032486;28;20096;-79
2022/06/17 10:43:43;;;;;;;54.78;24.50;;;;;;;29.34;37.79;100490.09;5016376;28;20060;-78
2022/06/17 10:46:22;;;;;;;83.38;32.97;;;;;;;30.45;35.13;100553.44;5034326;28;20032;-79
2022/06/17 10:49:18;;;;;;;57.92;22.33;;;;;;;29.48;34.38;100532.25;5036876;28;20061;-79
2022/06/17 10:51:47;;;;;;;136.70;49.10;;;;;;;29.87;37.42;100528.28;5021277;28;20064;-80
2022/06/17 10:54:23;;;;;;;103.30;34.35;;;;;;;29.76;38.35;100485.88;4991455;28;20063;-72
2022/06/17 10:57:11;;;;;;;124.15;48.47;;;;;;;29.41;36.33;100548.09;5012867;28;20059;-68
2022/06/17 10:59:42;;;;;;;116.53;43.65;;;;;;;29.20;37.40;100486.59;5011172;28;20056;-69
2022/06/17 11:02:34;;;;;;;103.88;39.33;;;;;;;30.40;37.97;100550.25;5009215;28;20148;-68
2022/06/17 11:05:04;;;;;;;137.40;48.45;;;;;;;30.00;38.05;100479.47;4991677;28;21275;-69
2022/06/17 11:07:37;;;;;;;133.82;47.92;;;;;;;30.06;35.60;100516.84;5015667;28;20124;-66
2022/06/17 11:10:17;;;;;;;153.15;49.80;;;;;;;29.71;35.17;100473.69;5011479;28;20140;-69
2022/06/17 11:12:55;;;;;;;120.95;45.78;;;;;;;29.43;35.99;100481.22;5012316;28;20092;-69
2022/06/17 11:15:24;;;;;;;118.72;42.55;;;;;;;29.32;36.09;100517.22;5014736;28;20125;-71
2022/06/17 11:17:53;;;;;;;137.05;48.40;;;;;;;29.25;37.64;100454.66;5014110;28;20509;-71
2022/06/17 11:20:28;;;;;;;168.98;52.88;;;;;;;30.02;37.69;100513.56;5013384;28;20077;-71
2022/06/17 11:22:58;;;;;;;128.05;44.13;;;;;;;29.99;37.42;100500.28;4995247;28;20052;-72
2022/06/17 11:25:35;;;;;;;116.72;43.80;;;;;;;29.22;36.86;100476.53;5010606;28;20045;-70
2022/06/17 11:28:33;;;;;;;129.40;46.55;;;;;;;29.48;40.20;100516.91;5009313;28;20052;-70
2022/06/17 11:31:05;;;;;;;24.73;14.52;;;;;;;28.83;37.20;100456.94;5014286;28;20156;-70
2022/06/17 11:33:38;;;;;;;117.90;39.17;;;;;;;28.96;38.80;100456.88;4993226;28;20049;-69
2022/06/17 11:36:48;;;;;;;157.57;50.67;;;;;;;29.85;36.77;100500.50;5012674;28;20506;-72
2022/06/17 11:39:34;;;;;;;175.95;54.17;;;;;;;29.90;36.13;100503.72;4981001;28;20698;-72
2022/06/17 11:42:14;;;;;;;195.55;52.55;;;;;;;29.73;37.62;100509.59;5014477;28;20038;-71
2022/06/17 11:45:00;;;;;;;198.20;53.65;;;;;;;30.17;37.32;100497.91;5016704;28;20046;-71
2022/06/17 11:47:30;;;;;;;139.23;42.88;;;;;;;30.40;35.01;100489.81;5011596;28;20077;-71
2022/06/17 11:50:10;;;;;;;51.63;25.95;;;;;;;29.36;35.84;100455.66;5017266;28;20049;-71